createdAt,value
2023-01-18T00:03:33.499Z,3.42
2023-01-18T00:08:37.101Z,3.25
2023-01-18T00:13:39.647Z,3.20
2023-01-18T00:18:41.231Z,2.95
2023-01-18T00:23:42.746Z,3.40
2023-01-18T00:28:44.789Z,3.40
2023-01-18T00:33:48.071Z,3.53
2023-01-18T00:38:53.933Z,3.20
2023-01-18T00:43:55.645Z,3.53
2023-01-18T00:48:58.975Z,3.35
2023-01-18T00:54:00.557Z,3.60
2023-01-18T00:59:02.160Z,3.40
2023-01-18T01:04:22.279Z,3.75
2023-01-18T01:09:25.613Z,3.13
2023-01-18T01:14:45.959Z,3.10
2023-01-18T01:20:05.754Z,2.92
2023-01-18T01:25:26.052Z,2.70
2023-01-18T01:30:27.567Z,3.38
2023-01-18T01:35:29.134Z,3.45
2023-01-18T01:40:30.726Z,2.95
2023-01-18T01:45:32.778Z,3.28
2023-01-18T01:50:39.777Z,3.10
2023-01-18T01:55:42.500Z,3.20
2023-01-18T02:00:44.641Z,3.40
2023-01-18T02:05:50.954Z,3.42
2023-01-18T02:10:52.891Z,3.55
2023-01-18T02:16:06.772Z,3.35
2023-01-18T02:21:16.102Z,4.05
2023-01-18T02:26:48.497Z,3.75
2023-01-18T02:32:19.204Z,3.55
2023-01-18T02:37:39.857Z,3.70
2023-01-18T02:43:02.499Z,3.30
2023-01-18T02:48:05.622Z,3.70
2023-01-18T02:53:07.156Z,3.58
2023-01-18T02:58:24.438Z,3.35
2023-01-18T03:03:27.016Z,4.10
2023-01-18T03:08:50.404Z,4.38
2023-01-18T03:14:04.123Z,4.47
2023-01-18T03:19:32.211Z,3.60
2023-01-18T03:24:41.124Z,4.43
2023-01-18T03:30:04.892Z,3.95
2023-01-18T03:35:12.821Z,4.63
2023-01-18T03:40:19.580Z,4.30
2023-01-18T03:45:29.856Z,4.95
2023-01-18T03:50:52.796Z,4.97
2023-01-18T03:56:02.004Z,4.68
2023-01-18T04:01:04.437Z,4.65
2023-01-18T04:06:06.795Z,5.13
2023-01-18T04:11:08.267Z,4.85
2023-01-18T04:16:10.167Z,5.30
2023-01-18T04:21:11.674Z,5.03
2023-01-18T04:26:15.422Z,4.80
2023-01-18T04:31:17.057Z,4.28
2023-01-18T04:36:20.145Z,4.88
2023-01-18T04:41:22.259Z,4.30
2023-01-18T04:46:23.761Z,4.45
2023-01-18T04:51:25.314Z,4.57
2023-01-18T04:56:27.100Z,4.57
2023-01-18T05:01:29.637Z,4.97
2023-01-18T05:06:31.181Z,3.97
2023-01-18T05:11:32.708Z,4.80
2023-01-18T05:16:34.745Z,4.15
2023-01-18T05:21:36.242Z,4.53
2023-01-18T05:26:38.279Z,4.28
2023-01-18T05:31:39.927Z,4.22
2023-01-18T05:36:41.428Z,4.10
2023-01-18T05:41:42.937Z,3.92
2023-01-18T05:46:44.481Z,4.00
2023-01-18T05:51:46.060Z,4.28
2023-01-18T05:56:47.666Z,3.92
2023-01-18T06:01:49.290Z,4.72
2023-01-18T06:06:50.843Z,4.40
2023-01-18T06:11:52.385Z,4.63
2023-01-18T06:16:53.911Z,4.50
2023-01-18T06:21:55.375Z,5.13
2023-01-18T06:26:57.620Z,4.78
2023-01-18T06:31:59.200Z,4.70
2023-01-18T06:37:00.893Z,5.00
2023-01-18T06:42:02.471Z,4.57
2023-01-18T06:47:04.091Z,4.55
2023-01-18T06:52:05.645Z,4.70
2023-01-18T06:57:07.330Z,5.10
2023-01-18T07:02:14.097Z,4.25
2023-01-18T07:07:16.114Z,3.97
2023-01-18T07:12:17.693Z,3.90
2023-01-18T07:17:19.236Z,4.43
2023-01-18T07:22:20.850Z,4.30
2023-01-18T07:27:22.347Z,4.30
2023-01-18T07:32:23.912Z,5.18
2023-01-18T07:37:25.430Z,4.05
2023-01-18T07:42:26.913Z,3.72
2023-01-18T07:47:28.395Z,4.10
2023-01-18T07:52:29.954Z,3.88
2023-01-18T07:57:31.429Z,4.95
2023-01-18T08:02:34.030Z,5.35
2023-01-18T08:07:36.833Z,4.90
2023-01-18T08:12:38.381Z,4.68
2023-01-18T08:17:40.162Z,4.53
2023-01-18T08:22:41.706Z,4.95
2023-01-18T08:27:43.222Z,4.70
2023-01-18T08:32:44.754Z,4.90
2023-01-18T08:37:46.298Z,5.47
2023-01-18T08:42:47.938Z,4.25
2023-01-18T08:47:56.082Z,4.22
2023-01-18T08:53:00.164Z,5.18
2023-01-18T08:58:02.029Z,4.85
2023-01-18T09:03:06.082Z,4.70
2023-01-18T09:08:08.372Z,5.38
2023-01-18T09:13:11.074Z,4.38
2023-01-18T09:18:13.706Z,4.65
2023-01-18T09:23:15.258Z,3.45
2023-01-18T09:28:17.452Z,4.90
2023-01-18T09:33:18.938Z,3.83
2023-01-18T09:38:20.467Z,3.95
2023-01-18T09:43:28.682Z,4.22
2023-01-18T09:48:38.042Z,3.70
2023-01-18T09:53:50.516Z,3.72
2023-01-18T09:59:01.864Z,4.13
2023-01-18T10:04:29.651Z,4.32
2023-01-18T10:09:39.074Z,4.78
2023-01-18T10:15:07.578Z,3.95
2023-01-18T10:21:03.500Z,3.40
2023-01-18T10:26:19.074Z,3.15
2023-01-18T10:31:45.709Z,3.58
2023-01-18T10:36:58.725Z,3.72
2023-01-18T10:42:08.529Z,3.78
2023-01-18T10:47:12.024Z,3.80
2023-01-18T10:52:28.884Z,4.28
2023-01-18T10:57:43.456Z,3.30
2023-01-18T11:02:45.391Z,4.38
2023-01-18T11:07:47.244Z,3.25
2023-01-18T11:12:52.187Z,3.88
2023-01-18T11:18:00.675Z,3.78
2023-01-18T11:23:25.306Z,3.45
2023-01-18T11:28:44.741Z,3.55
2023-01-18T11:33:50.865Z,3.67
2023-01-18T11:38:52.391Z,2.90
2023-01-18T11:44:06.954Z,2.80
2023-01-18T11:49:27.947Z,2.03
2023-01-18T11:54:42.901Z,1.90
2023-01-18T11:59:46.087Z,2.20
2023-01-18T12:05:15.470Z,1.85
2023-01-18T12:10:22.092Z,2.28
2023-01-18T12:15:29.125Z,1.90
2023-01-18T12:20:49.393Z,1.80
2023-01-18T12:26:22.285Z,1.65
2023-01-18T12:31:47.010Z,1.20
2023-01-18T12:36:57.885Z,1.67
2023-01-18T12:42:09.739Z,1.50
2023-01-18T12:47:17.181Z,1.30
2023-01-18T12:52:22.334Z,1.40
2023-01-18T12:57:25.609Z,1.40
2023-01-18T13:02:38.847Z,1.85
2023-01-18T13:07:45.754Z,1.30
2023-01-18T13:12:50.024Z,1.70
2023-01-18T13:17:51.506Z,1.52
2023-01-18T13:23:07.854Z,1.60
2023-01-18T13:28:18.098Z,1.23
2023-01-18T13:33:28.986Z,1.30
2023-01-18T13:38:41.322Z,1.50
2023-01-18T13:43:43.382Z,1.40
2023-01-18T13:48:47.829Z,1.33
2023-01-18T13:53:50.169Z,1.70
2023-01-18T13:58:55.980Z,1.20
2023-01-18T14:04:04.439Z,1.42
2023-01-18T14:09:09.331Z,1.27
2023-01-18T14:14:17.587Z,1.60
2023-01-18T14:19:21.666Z,1.13
2023-01-18T14:24:31.954Z,1.50
2023-01-18T14:29:44.292Z,1.38
2023-01-18T14:34:45.960Z,1.83
2023-01-18T14:39:47.597Z,1.30
2023-01-18T14:44:58.236Z,1.55
2023-01-18T14:50:04.730Z,1.60
2023-01-18T14:55:08.966Z,1.30
2023-01-18T15:00:17.509Z,1.50
2023-01-18T15:05:20.887Z,1.08
2023-01-18T15:10:24.208Z,1.23
2023-01-18T15:15:30.606Z,1.42
2023-01-18T15:20:33.867Z,1.75
2023-01-18T15:25:35.444Z,1.73
2023-01-18T15:30:36.954Z,1.63
2023-01-18T15:35:38.667Z,1.50
2023-01-18T15:40:44.124Z,2.10
2023-01-18T15:45:50.084Z,1.75
2023-01-18T15:50:54.230Z,2.15
2023-01-18T15:56:03.446Z,1.67
2023-01-18T16:01:22.191Z,1.50
2023-01-18T16:06:23.954Z,2.13
2023-01-18T16:11:44.422Z,1.85
2023-01-18T16:16:47.274Z,1.75
2023-01-18T16:21:53.107Z,1.80
2023-01-18T16:26:55.451Z,2.42
2023-01-18T16:32:28.172Z,1.85
2023-01-18T16:37:30.633Z,2.60
2023-01-18T16:42:38.442Z,2.00
2023-01-18T16:47:40.143Z,2.38
2023-01-18T16:52:41.777Z,1.95
2023-01-18T16:57:43.840Z,3.30
2023-01-18T17:02:45.667Z,2.95
2023-01-18T17:07:47.807Z,2.53
2023-01-18T17:12:49.434Z,2.65
2023-01-18T17:17:51.015Z,3.08
2023-01-18T17:22:53.998Z,2.75
2023-01-18T17:27:56.356Z,2.72
2023-01-18T17:32:58.162Z,2.97
2023-01-18T17:38:05.238Z,1.83
2023-01-18T17:43:33.443Z,3.20
2023-01-18T17:48:36.275Z,2.80
2023-01-18T17:53:39.788Z,2.92
2023-01-18T17:58:41.321Z,2.20
2023-01-18T18:03:47.781Z,8.60
2023-01-18T18:08:49.393Z,6.10
2023-01-18T18:13:50.987Z,4.03
2023-01-18T18:18:53.278Z,2.45
2023-01-18T18:23:54.871Z,2.50
2023-01-18T18:28:56.416Z,2.78
2023-01-18T18:33:57.899Z,2.15
2023-01-18T18:39:01.659Z,9.20
2023-01-18T18:44:03.437Z,3.05
2023-01-18T18:49:05.068Z,1.70
2023-01-18T18:54:06.600Z,3.42
2023-01-18T18:59:08.414Z,2.03
2023-01-18T19:04:09.995Z,2.17
2023-01-18T19:09:11.455Z,2.50
2023-01-18T19:14:14.909Z,3.15
2023-01-18T19:19:16.697Z,1.95
2023-01-18T19:24:18.580Z,1.90
2023-01-18T19:29:20.173Z,2.17
2023-01-18T19:34:22.793Z,4.43
2023-01-18T19:39:24.336Z,2.50
2023-01-18T19:44:25.879Z,3.78
2023-01-18T19:49:27.365Z,1.52
2023-01-18T19:54:28.923Z,1.80
2023-01-18T19:59:30.437Z,1.60
2023-01-18T20:04:33.870Z,2.00
2023-01-18T20:09:43.059Z,1.52
2023-01-18T20:14:45.287Z,4.20
2023-01-18T20:19:47.090Z,4.20
2023-01-18T20:24:48.945Z,2.15
2023-01-18T20:29:50.561Z,2.55
2023-01-18T20:34:52.057Z,1.95
2023-01-18T20:39:55.859Z,1.63
2023-01-18T20:45:00.402Z,1.63
2023-01-18T20:50:03.339Z,1.38
2023-01-18T20:55:05.207Z,1.08
2023-01-18T21:00:08.449Z,1.20
2023-01-18T21:05:10.604Z,1.10
2023-01-18T21:10:12.368Z,1.45
2023-01-18T21:15:13.899Z,1.23
2023-01-18T21:20:15.703Z,1.35
2023-01-18T21:25:17.245Z,1.25
2023-01-18T21:30:19.742Z,0.90
2023-01-18T21:35:21.253Z,1.25
2023-01-18T21:40:22.780Z,1.90
2023-01-18T21:45:43.141Z,1.20
2023-01-18T21:51:03.371Z,1.30
2023-01-18T21:56:05.777Z,1.40
2023-01-18T22:01:16.861Z,0.70
2023-01-18T22:06:18.485Z,0.70
2023-01-18T22:11:20.004Z,0.60
2023-01-18T22:16:21.594Z,1.00
2023-01-18T22:21:25.280Z,0.93
2023-01-18T22:26:28.712Z,0.80
2023-01-18T22:31:30.232Z,1.00
2023-01-18T22:36:32.712Z,2.15
2023-01-18T22:41:34.229Z,1.25
2023-01-18T22:46:35.771Z,1.10
2023-01-18T22:51:37.378Z,1.10
2023-01-18T22:56:38.976Z,1.00
2023-01-18T23:01:40.506Z,1.33
2023-01-18T23:06:46.188Z,1.08
2023-01-18T23:11:47.997Z,0.60
2023-01-18T23:17:08.027Z,1.05
2023-01-18T23:22:10.627Z,1.15
2023-01-18T23:27:12.339Z,1.08
2023-01-18T23:32:13.849Z,0.90
2023-01-18T23:37:15.299Z,1.30
2023-01-18T23:42:35.428Z,1.13
2023-01-18T23:47:55.821Z,1.20
2023-01-18T23:53:18.524Z,1.15
2023-01-18T23:58:20.081Z,1.00
